createdAt,value
2019-02-21T00:00:58.952Z,8.94
2019-02-21T00:05:06.994Z,8.92
2019-02-21T00:09:14.799Z,8.89
2019-02-21T00:13:23.013Z,8.96
2019-02-21T00:17:30.736Z,8.69
2019-02-21T00:21:38.925Z,8.56
2019-02-21T00:25:46.665Z,8.38
2019-02-21T00:29:54.246Z,8.65
2019-02-21T00:34:02.163Z,8.64
2019-02-21T00:38:10.093Z,8.52
2019-02-21T00:42:17.805Z,8.32
2019-02-21T00:46:26.101Z,8.65
2019-02-21T00:50:35.147Z,8.73
2019-02-21T00:54:42.868Z,8.68
2019-02-21T00:58:51.093Z,8.51
2019-02-21T01:02:58.923Z,8.33
2019-02-21T01:07:07.304Z,8.54
2019-02-21T01:11:15.362Z,8.60
2019-02-21T01:15:23.551Z,8.31
2019-02-21T01:19:31.543Z,8.33
2019-02-21T01:23:39.670Z,8.41
2019-02-21T01:27:47.590Z,8.31
2019-02-21T01:31:55.816Z,8.24
2019-02-21T01:36:03.622Z,8.30
2019-02-21T01:40:12.574Z,8.29
2019-02-21T01:44:20.865Z,8.27
2019-02-21T01:48:29.694Z,8.32
2019-02-21T01:52:37.823Z,8.45
2019-02-21T01:56:45.568Z,8.40
2019-02-21T02:00:54.255Z,8.41
2019-02-21T02:05:01.990Z,8.35
2019-02-21T02:09:12.472Z,8.45
2019-02-21T02:13:24.697Z,8.22
2019-02-21T02:17:30.628Z,8.27
2019-02-21T02:21:38.747Z,8.23
2019-02-21T02:25:46.960Z,8.23
2019-02-21T02:29:54.976Z,8.12
2019-02-21T02:34:02.679Z,8.06
2019-02-21T02:38:10.857Z,8.01
2019-02-21T02:42:19.539Z,7.89
2019-02-21T02:46:27.353Z,7.88
2019-02-21T02:50:35.068Z,7.89
2019-02-21T02:54:44.014Z,7.94
2019-02-21T02:58:52.404Z,8.02
2019-02-21T03:03:00.127Z,8.18
2019-02-21T03:07:08.392Z,8.09
2019-02-21T03:11:16.531Z,8.09
2019-02-21T03:15:24.262Z,8.08
2019-02-21T03:19:31.976Z,8.03
2019-02-21T03:23:40.210Z,7.99
2019-02-21T03:27:47.641Z,7.99
2019-02-21T03:31:56.282Z,7.97
2019-02-21T03:36:04.271Z,7.86
2019-02-21T03:40:12.356Z,7.83
2019-02-21T03:44:20.354Z,8.08
2019-02-21T03:48:28.168Z,8.35
2019-02-21T03:52:35.996Z,8.35
2019-02-21T03:56:44.237Z,8.38
2019-02-21T04:00:52.159Z,8.32
2019-02-21T04:05:00.368Z,8.43
2019-02-21T04:09:10.316Z,8.41
2019-02-21T04:13:17.918Z,8.37
2019-02-21T04:17:26.141Z,8.53
2019-02-21T04:21:34.453Z,8.59
2019-02-21T04:25:42.077Z,8.16
2019-02-21T04:29:49.963Z,8.34
2019-02-21T04:33:58.093Z,8.31
2019-02-21T04:38:05.934Z,8.42
2019-02-21T04:42:14.158Z,8.43
2019-02-21T04:46:22.007Z,8.58
2019-02-21T04:50:29.809Z,8.50
2019-02-21T04:54:37.970Z,8.42
2019-02-21T04:58:45.770Z,8.26
2019-02-21T05:02:53.923Z,8.37
2019-02-21T05:07:01.885Z,8.15
2019-02-21T05:11:09.801Z,8.32
2019-02-21T05:15:17.732Z,8.24
2019-02-21T05:19:25.447Z,8.07
2019-02-21T05:23:33.550Z,8.08
2019-02-21T05:27:47.693Z,7.94
2019-02-21T05:32:40.947Z,7.61
2019-02-21T05:37:01.718Z,7.83
2019-02-21T05:41:23.457Z,7.51
2019-02-21T05:45:53.301Z,7.57
2019-02-21T05:50:34.698Z,7.73
2019-02-21T05:55:04.131Z,7.93
2019-02-21T05:59:44.423Z,8.10
2019-02-21T06:04:19.584Z,8.16
2019-02-21T06:08:44.113Z,8.10
2019-02-21T06:13:03.817Z,7.99
2019-02-21T06:17:30.219Z,8.15
2019-02-21T06:22:10.492Z,8.24
2019-02-21T06:26:23.661Z,8.24
2019-02-21T06:30:47.147Z,8.13
2019-02-21T06:34:54.968Z,7.98
2019-02-21T06:39:02.713Z,8.41
2019-02-21T06:43:11.152Z,8.75
2019-02-21T06:47:18.973Z,8.98
2019-02-21T06:51:26.887Z,9.02
2019-02-21T06:55:34.695Z,9.07
2019-02-21T06:59:45.521Z,9.15
2019-02-21T07:03:53.886Z,9.05
2019-02-21T07:08:02.011Z,9.15
2019-02-21T07:12:10.673Z,9.12
2019-02-21T07:16:18.855Z,9.52
2019-02-21T07:20:28.922Z,9.70
2019-02-21T07:24:38.702Z,10.22
2019-02-21T07:28:47.127Z,10.69
2019-02-21T07:32:58.120Z,11.12
2019-02-21T07:37:18.683Z,11.60
2019-02-21T07:41:22.002Z,11.69
2019-02-21T07:45:29.702Z,11.05
2019-02-21T07:49:37.824Z,10.85
2019-02-21T07:53:46.113Z,10.78
2019-02-21T07:57:53.842Z,10.63
2019-02-21T08:02:01.877Z,10.85
2019-02-21T08:06:09.983Z,11.14
2019-02-21T08:10:18.092Z,10.86
2019-02-21T08:14:26.008Z,10.71
2019-02-21T08:18:34.132Z,10.78
2019-02-21T08:22:41.747Z,10.79
2019-02-21T08:26:49.653Z,10.83
2019-02-21T08:30:58.259Z,11.15
2019-02-21T08:35:06.957Z,11.02
2019-02-21T08:39:15.059Z,10.69
2019-02-21T08:43:22.968Z,11.25
2019-02-21T08:47:31.180Z,11.18
2019-02-21T08:51:38.976Z,11.83
2019-02-21T08:55:46.604Z,11.32
2019-02-21T08:59:54.837Z,11.61
2019-02-21T09:04:10.506Z,11.76
2019-02-21T09:08:12.330Z,11.39
2019-02-21T09:12:20.524Z,11.68
2019-02-21T09:16:28.592Z,11.77
2019-02-21T09:20:36.208Z,12.03
2019-02-21T09:24:44.448Z,11.93
2019-02-21T09:28:52.686Z,12.32
2019-02-21T09:33:00.471Z,12.79
2019-02-21T09:37:08.386Z,12.39
2019-02-21T09:41:16.192Z,12.13
2019-02-21T09:45:24.119Z,12.50
2019-02-21T09:49:31.930Z,13.59
2019-02-21T09:53:39.623Z,14.46
2019-02-21T09:57:47.454Z,14.63
2019-02-21T10:01:57.513Z,14.35
2019-02-21T10:06:04.952Z,14.23
2019-02-21T10:10:14.777Z,14.83
2019-02-21T10:14:22.602Z,15.10
2019-02-21T10:18:30.262Z,14.98
2019-02-21T10:22:38.597Z,15.24
2019-02-21T10:26:46.932Z,15.04
2019-02-21T10:30:54.722Z,14.38
2019-02-21T10:35:02.772Z,14.38
2019-02-21T10:39:11.384Z,14.36
2019-02-21T10:43:19.185Z,15.02
2019-02-21T10:47:27.116Z,15.57
2019-02-21T10:51:35.187Z,15.34
2019-02-21T10:55:42.953Z,15.86
2019-02-21T10:59:51.334Z,15.55
2019-02-21T11:03:59.046Z,15.46
2019-02-21T11:08:06.755Z,15.88
2019-02-21T11:12:15.061Z,16.06
2019-02-21T11:16:22.891Z,16.50
2019-02-21T11:20:31.005Z,16.11
2019-02-21T11:24:39.243Z,16.62
2019-02-21T11:28:47.359Z,16.85
2019-02-21T11:32:55.464Z,16.47
2019-02-21T11:37:03.681Z,16.44
2019-02-21T11:41:11.390Z,16.30
2019-02-21T11:45:20.035Z,15.87
2019-02-21T11:49:27.826Z,15.42
2019-02-21T11:53:38.004Z,14.87
2019-02-21T11:57:45.787Z,14.79
2019-02-21T12:01:53.622Z,14.41
2019-02-21T12:06:01.813Z,14.74
2019-02-21T12:10:10.578Z,15.53
2019-02-21T12:14:18.355Z,17.12
2019-02-21T12:18:27.342Z,17.12
2019-02-21T12:22:35.365Z,16.99
2019-02-21T12:26:43.137Z,16.94
2019-02-21T12:30:51.376Z,16.71
2019-02-21T12:34:59.357Z,15.15
2019-02-21T12:39:07.881Z,15.14
2019-02-21T12:43:16.379Z,15.24
2019-02-21T12:47:24.336Z,14.81
2019-02-21T12:51:31.964Z,14.31
2019-02-21T12:55:39.860Z,13.78
2019-02-21T12:59:48.148Z,13.54
2019-02-21T13:03:57.008Z,13.49
2019-02-21T13:08:05.526Z,12.66
2019-02-21T13:12:13.337Z,12.37
2019-02-21T13:16:21.150Z,12.47
2019-02-21T13:20:29.053Z,12.78
2019-02-21T13:24:36.764Z,12.66
2019-02-21T13:28:44.776Z,12.73
2019-02-21T13:32:52.814Z,12.75
2019-02-21T13:37:00.421Z,12.59
2019-02-21T13:41:08.529Z,12.37
2019-02-21T13:45:17.798Z,11.98
2019-02-21T13:49:25.902Z,12.03
2019-02-21T13:53:33.706Z,12.54
2019-02-21T13:57:41.323Z,12.47
2019-02-21T14:01:50.131Z,12.43
2019-02-21T14:06:03.580Z,12.16
2019-02-21T14:10:08.742Z,12.23
2019-02-21T14:14:16.999Z,12.03
2019-02-21T14:18:24.819Z,11.96
2019-02-21T14:22:32.537Z,12.11
2019-02-21T14:26:41.665Z,12.03
2019-02-21T14:30:49.714Z,11.98
2019-02-21T14:34:57.428Z,11.80
2019-02-21T14:39:06.588Z,11.64
2019-02-21T14:43:17.059Z,11.50
2019-02-21T14:47:24.807Z,11.46
2019-02-21T14:51:33.057Z,11.30
2019-02-21T14:55:41.052Z,10.99
2019-02-21T14:59:48.615Z,10.99
2019-02-21T15:03:56.680Z,10.88
2019-02-21T15:08:04.432Z,11.01
2019-02-21T15:12:12.602Z,11.00
2019-02-21T15:16:20.537Z,10.86
2019-02-21T15:20:36.299Z,10.63
2019-02-21T15:24:37.850Z,10.66
2019-02-21T15:28:46.092Z,10.77
2019-02-21T15:32:53.805Z,10.74
2019-02-21T15:37:02.094Z,10.94
2019-02-21T15:41:10.116Z,10.73
2019-02-21T15:45:23.367Z,10.40
2019-02-21T15:49:29.375Z,10.24
2019-02-21T15:53:37.700Z,10.35
2019-02-21T15:57:46.552Z,9.85
2019-02-21T16:01:54.609Z,10.08
2019-02-21T16:06:02.332Z,10.17
2019-02-21T16:10:12.207Z,9.77
2019-02-21T16:14:20.492Z,9.75
2019-02-21T16:18:28.167Z,9.49
2019-02-21T16:22:37.231Z,9.40
2019-02-21T16:26:45.557Z,9.22
2019-02-21T16:30:53.361Z,9.17
2019-02-21T16:35:01.482Z,9.39
2019-02-21T16:39:10.529Z,9.40
2019-02-21T16:43:18.635Z,9.23
2019-02-21T16:47:26.647Z,8.85
2019-02-21T16:51:34.789Z,8.88
2019-02-21T16:55:42.581Z,8.91
2019-02-21T16:59:51.224Z,8.96
2019-02-21T17:03:59.022Z,8.85
2019-02-21T17:08:06.802Z,8.60
2019-02-21T17:12:14.995Z,8.23
2019-02-21T17:16:22.609Z,8.24
2019-02-21T17:20:30.334Z,8.26
2019-02-21T17:24:38.408Z,8.42
2019-02-21T17:28:46.280Z,8.54
2019-02-21T17:32:54.315Z,8.32
2019-02-21T17:37:02.596Z,8.43
2019-02-21T17:41:10.346Z,8.60
2019-02-21T17:45:19.437Z,8.44
2019-02-21T17:49:30.135Z,8.16
2019-02-21T17:53:39.004Z,7.91
2019-02-21T17:57:53.008Z,7.47
2019-02-21T18:02:01.614Z,7.22
2019-02-21T18:06:09.359Z,7.24
2019-02-21T18:10:18.039Z,7.47
2019-02-21T18:14:26.312Z,7.59
2019-02-21T18:18:34.100Z,7.45
2019-02-21T18:22:41.937Z,7.48
2019-02-21T18:26:51.045Z,7.48
2019-02-21T18:30:58.947Z,7.49
2019-02-21T18:35:07.414Z,7.40
2019-02-21T18:39:15.882Z,7.54
2019-02-21T18:43:24.017Z,7.48
2019-02-21T18:47:32.155Z,7.22
2019-02-21T18:51:39.858Z,7.01
2019-02-21T18:55:47.767Z,7.08
2019-02-21T18:59:56.519Z,7.20
2019-02-21T19:04:04.605Z,7.23
2019-02-21T19:08:14.025Z,6.98
2019-02-21T19:12:21.892Z,6.81
2019-02-21T19:16:29.875Z,6.51
2019-02-21T19:20:38.372Z,6.56
2019-02-21T19:24:46.307Z,6.83
2019-02-21T19:28:54.967Z,6.97
2019-02-21T19:33:03.134Z,7.19
2019-02-21T19:37:11.316Z,7.02
2019-02-21T19:41:20.068Z,7.10
2019-02-21T19:45:29.267Z,7.24
2019-02-21T19:49:37.533Z,7.01
2019-02-21T19:53:45.733Z,6.96
2019-02-21T19:57:53.509Z,7.00
2019-02-21T20:02:01.846Z,7.03
2019-02-21T20:06:09.656Z,7.17
2019-02-21T20:10:18.680Z,7.01
2019-02-21T20:14:26.893Z,6.84
2019-02-21T20:18:34.732Z,6.86
2019-02-21T20:22:42.927Z,6.84
2019-02-21T20:26:51.154Z,6.51
2019-02-21T20:30:58.825Z,6.58
2019-02-21T20:35:07.399Z,6.55
2019-02-21T20:39:15.397Z,6.59
2019-02-21T20:43:23.309Z,6.73
2019-02-21T20:47:31.181Z,6.64
2019-02-21T20:51:39.150Z,6.85
2019-02-21T20:55:47.267Z,6.77
2019-02-21T20:59:55.672Z,6.78
2019-02-21T21:04:04.086Z,6.81
2019-02-21T21:08:11.750Z,6.78
2019-02-21T21:12:19.914Z,6.96
2019-02-21T21:16:27.993Z,6.95
2019-02-21T21:20:35.758Z,6.89
2019-02-21T21:24:44.066Z,6.62
2019-02-21T21:28:51.867Z,6.58
2019-02-21T21:32:59.688Z,6.59
2019-02-21T21:37:07.693Z,6.60
2019-02-21T21:41:15.643Z,6.22
2019-02-21T21:45:23.548Z,6.30
2019-02-21T21:49:31.458Z,6.40
2019-02-21T21:53:39.157Z,6.43
2019-02-21T21:57:48.702Z,6.21
2019-02-21T22:01:57.103Z,6.28
2019-02-21T22:06:05.253Z,6.50
2019-02-21T22:10:14.150Z,6.49
2019-02-21T22:14:22.954Z,6.61
2019-02-21T22:18:30.645Z,6.49
2019-02-21T22:22:38.780Z,6.36
2019-02-21T22:26:46.993Z,6.31
2019-02-21T22:30:54.785Z,6.33
2019-02-21T22:35:02.832Z,6.39
2019-02-21T22:39:16.436Z,6.34
2019-02-21T22:43:20.606Z,6.36
2019-02-21T22:47:28.912Z,6.35
2019-02-21T22:51:37.008Z,6.40
2019-02-21T22:55:44.912Z,6.23
2019-02-21T22:59:53.240Z,6.12
2019-02-21T23:04:54.889Z,6.24
2019-02-21T23:09:02.865Z,6.18
2019-02-21T23:13:12.712Z,6.15
2019-02-21T23:17:20.634Z,6.18
2019-02-21T23:21:28.919Z,5.97
2019-02-21T23:25:37.033Z,5.84
2019-02-21T23:29:44.853Z,5.84
2019-02-21T23:33:56.828Z,5.82
2019-02-21T23:38:04.749Z,5.73
2019-02-21T23:42:12.559Z,5.66
2019-02-21T23:46:20.781Z,5.53
2019-02-21T23:50:28.588Z,5.51
2019-02-21T23:54:36.901Z,5.55
2019-02-21T23:58:45.229Z,5.19
